createdAt,value
2022-12-13T00:02:44.953Z,13.55
2022-12-13T00:07:47.330Z,12.13
2022-12-13T00:12:49.632Z,13.13
2022-12-13T00:17:52.105Z,13.93
2022-12-13T00:22:54.248Z,11.88
2022-12-13T00:27:56.425Z,13.35
2022-12-13T00:32:59.533Z,16.05
2022-12-13T00:38:01.696Z,12.25
2022-12-13T00:43:03.881Z,12.50
2022-12-13T00:48:06.681Z,12.52
2022-12-13T00:53:09.728Z,11.45
2022-12-13T00:58:11.928Z,13.52
2022-12-13T01:03:20.780Z,13.25
2022-12-13T01:08:23.297Z,14.07
2022-12-13T01:13:25.453Z,12.93
2022-12-13T01:18:27.694Z,10.98
2022-12-13T01:23:30.683Z,12.18
2022-12-13T01:28:33.531Z,10.98
2022-12-13T01:33:36.365Z,10.32
2022-12-13T01:38:38.498Z,10.00
2022-12-13T01:43:43.500Z,12.57
2022-12-13T01:49:00.740Z,12.80
2022-12-13T01:54:04.805Z,14.00
2022-12-13T01:59:10.849Z,13.13
2022-12-13T02:04:13.105Z,12.90
2022-12-13T02:09:15.587Z,12.13
2022-12-13T02:14:17.721Z,11.27
2022-12-13T02:19:26.479Z,10.93
2022-12-13T02:24:59.177Z,10.60
2022-12-13T02:30:22.467Z,12.00
2022-12-13T02:35:39.280Z,10.50
2022-12-13T02:41:05.507Z,10.45
2022-12-13T02:46:08.420Z,10.75
2022-12-13T02:51:12.781Z,11.05
2022-12-13T02:56:15.303Z,11.35
2022-12-13T03:01:28.044Z,12.02
2022-12-13T03:06:55.002Z,12.05
2022-12-13T03:12:34.637Z,12.25
2022-12-13T03:17:44.710Z,12.07
2022-12-13T03:22:47.049Z,10.90
2022-12-13T03:27:49.184Z,11.45
2022-12-13T03:32:51.299Z,10.27
2022-12-13T03:37:53.508Z,9.65
2022-12-13T03:42:56.262Z,10.02
2022-12-13T03:47:58.463Z,10.05
2022-12-13T03:53:04.030Z,10.70
2022-12-13T04:03:10.369Z,8.25
2022-12-13T04:08:22.399Z,8.70
2022-12-13T04:13:33.936Z,9.73
2022-12-13T04:18:36.122Z,11.05
2022-12-13T04:23:38.278Z,10.10
2022-12-13T04:28:40.480Z,12.60
2022-12-13T04:33:42.726Z,14.68
2022-12-13T04:38:45.165Z,11.40
2022-12-13T04:43:54.407Z,10.18
2022-12-13T04:48:56.574Z,11.13
2022-12-13T04:54:24.296Z,10.85
2022-12-13T04:59:20.940Z,9.50
2022-12-13T05:04:26.310Z,9.85
2022-12-13T05:09:31.170Z,10.40
2022-12-13T05:14:33.714Z,10.05
2022-12-13T05:19:35.861Z,10.43
2022-12-13T05:24:38.256Z,10.73
2022-12-13T05:29:40.431Z,10.75
2022-12-13T05:34:42.557Z,10.35
2022-12-13T05:39:44.682Z,9.40
2022-12-13T05:44:46.867Z,11.45
2022-12-13T05:49:49.091Z,10.32
2022-12-13T05:55:13.143Z,9.80
2022-12-13T06:00:28.800Z,8.23
2022-12-13T06:05:32.080Z,8.98
2022-12-13T06:10:35.473Z,9.13
2022-12-13T06:15:38.519Z,8.75
2022-12-13T06:20:57.280Z,9.80
2022-12-13T06:26:02.357Z,9.27
2022-12-13T06:31:05.246Z,9.85
2022-12-13T06:36:08.067Z,9.38
2022-12-13T06:41:12.857Z,8.38
2022-12-13T06:46:15.912Z,9.03
2022-12-13T06:51:23.035Z,8.80
2022-12-13T06:56:34.879Z,8.07
2022-12-13T07:01:38.103Z,7.70
2022-12-13T07:06:40.328Z,6.32
2022-12-13T07:11:45.797Z,7.05
2022-12-13T07:16:50.651Z,10.10
2022-12-13T07:21:52.835Z,10.93
2022-12-13T07:26:54.922Z,10.05
2022-12-13T07:32:01.328Z,9.85
2022-12-13T07:37:04.162Z,9.20
2022-12-13T07:42:06.358Z,9.48
2022-12-13T07:47:08.508Z,9.07
2022-12-13T07:52:11.768Z,8.07
2022-12-13T07:57:13.919Z,7.32
2022-12-13T08:02:16.216Z,6.85
2022-12-13T08:07:18.456Z,6.70
2022-12-13T08:12:22.619Z,6.13
2022-12-13T08:17:25.270Z,5.57
2022-12-13T08:22:27.560Z,4.65
2022-12-13T08:27:37.858Z,4.13
2022-12-13T08:32:45.348Z,4.90
2022-12-13T08:37:47.526Z,5.07
2022-12-13T08:42:49.775Z,4.45
2022-12-13T08:47:51.911Z,4.25
2022-12-13T08:52:54.023Z,4.07
2022-12-13T08:57:56.170Z,5.35
2022-12-13T09:03:06.122Z,5.22
2022-12-13T09:08:23.048Z,4.85
2022-12-13T09:13:33.768Z,4.82
2022-12-13T09:18:36.981Z,4.30
2022-12-13T09:23:46.284Z,6.70
2022-12-13T09:28:48.578Z,7.28
2022-12-13T09:33:50.943Z,6.32
2022-12-13T09:38:53.154Z,4.93
2022-12-13T09:44:32.115Z,4.28
2022-12-13T09:49:43.495Z,6.57
2022-12-13T09:54:57.635Z,7.03
2022-12-13T10:00:06.114Z,5.47
2022-12-13T10:05:39.227Z,4.10
2022-12-13T10:10:46.385Z,3.67
2022-12-13T10:16:08.116Z,3.28
2022-12-13T10:21:22.222Z,3.20
2022-12-13T10:26:25.240Z,3.50
2022-12-13T10:31:27.599Z,3.67
2022-12-13T10:36:34.452Z,3.47
2022-12-13T10:41:38.817Z,3.58
2022-12-13T10:46:43.177Z,3.80
2022-12-13T10:51:45.742Z,3.92
2022-12-13T10:56:50.818Z,3.70
2022-12-13T11:01:53.682Z,4.15
2022-12-13T11:06:57.775Z,3.58
2022-12-13T11:12:11.265Z,4.85
2022-12-13T11:17:24.070Z,4.70
2022-12-13T11:22:28.661Z,5.07
2022-12-13T11:27:57.024Z,6.28
2022-12-13T11:33:29.324Z,6.57
2022-12-13T11:38:34.877Z,5.78
2022-12-13T11:43:44.889Z,5.78
2022-12-13T11:48:56.557Z,7.00
2022-12-13T11:54:01.147Z,6.75
2022-12-13T11:59:16.017Z,5.70
2022-12-13T12:04:48.939Z,6.40
2022-12-13T12:09:58.171Z,6.93
2022-12-13T12:15:05.856Z,5.93
2022-12-13T12:20:27.966Z,5.88
2022-12-13T12:25:52.838Z,6.38
2022-12-13T12:31:13.227Z,6.75
2022-12-13T12:36:29.345Z,6.70
2022-12-13T12:47:08.757Z,7.63
2022-12-13T12:52:33.505Z,7.65
2022-12-13T12:57:56.686Z,6.85
2022-12-13T13:03:13.645Z,7.00
2022-12-13T13:08:40.829Z,7.47
2022-12-13T13:13:46.572Z,6.47
2022-12-13T13:18:51.108Z,6.45
2022-12-13T13:24:02.197Z,7.35
2022-12-13T13:29:27.801Z,7.28
2022-12-13T13:34:39.479Z,7.03
2022-12-13T13:40:30.327Z,7.45
2022-12-13T13:45:54.364Z,6.70
2022-12-13T13:51:15.177Z,7.13
2022-12-13T13:57:08.044Z,6.90
2022-12-13T14:02:24.891Z,6.82
2022-12-13T14:08:02.899Z,6.95
2022-12-13T14:13:44.818Z,6.13
2022-12-13T14:19:26.618Z,6.32
2022-12-13T14:24:50.312Z,7.13
2022-12-13T14:29:58.543Z,7.20
2022-12-13T14:35:25.569Z,7.63
2022-12-13T14:40:27.779Z,7.45
2022-12-13T14:45:31.449Z,7.40
2022-12-13T14:50:35.774Z,7.25
2022-12-13T14:55:37.968Z,8.07
2022-12-13T15:00:41.439Z,8.18
2022-12-13T15:05:50.534Z,8.63
2022-12-13T15:11:06.604Z,8.95
2022-12-13T15:16:19.861Z,8.35
2022-12-13T15:21:28.006Z,9.95
2022-12-13T15:26:37.946Z,9.40
2022-12-13T15:31:40.816Z,9.98
2022-12-13T15:36:43.085Z,8.63
2022-12-13T15:41:48.541Z,9.30
2022-12-13T15:46:51.983Z,9.68
2022-12-13T15:52:06.282Z,8.77
2022-12-13T15:57:20.053Z,10.38
2022-12-13T16:02:24.789Z,10.07
2022-12-13T16:07:37.839Z,9.40
2022-12-13T16:12:47.926Z,10.15
2022-12-13T16:17:54.920Z,10.38
2022-12-13T16:23:09.140Z,11.00
2022-12-13T16:28:16.308Z,10.73
2022-12-13T16:33:29.469Z,10.23
2022-12-13T16:38:31.739Z,10.30
2022-12-13T16:43:37.853Z,9.57
2022-12-13T16:48:40.396Z,9.02
2022-12-13T16:53:43.877Z,11.00
2022-12-13T16:58:49.897Z,12.63
2022-12-13T17:03:52.940Z,10.95
2022-12-13T17:08:55.114Z,10.63
2022-12-13T17:13:59.280Z,12.20
2022-12-13T17:19:01.427Z,11.18
2022-12-13T17:24:03.782Z,11.45
2022-12-13T17:29:10.887Z,13.40
2022-12-13T17:34:16.743Z,13.60
2022-12-13T17:39:18.984Z,14.52
2022-12-13T17:44:21.241Z,14.23
2022-12-13T17:49:24.724Z,13.75
2022-12-13T17:54:27.642Z,15.00
2022-12-13T17:59:29.787Z,17.08
2022-12-13T18:04:32.252Z,13.38
2022-12-13T18:09:34.351Z,15.15
2022-12-13T18:14:36.803Z,22.40
2022-12-13T18:19:38.870Z,21.77
2022-12-13T18:24:40.902Z,19.95
2022-12-13T18:29:55.133Z,17.40
2022-12-13T18:34:57.737Z,14.23
2022-12-13T18:39:59.781Z,15.40
2022-12-13T18:45:01.866Z,14.32
2022-12-13T18:50:04.306Z,15.52
2022-12-13T18:55:06.982Z,16.48
2022-12-13T19:00:09.846Z,14.63
2022-12-13T19:05:12.189Z,18.00
2022-12-13T19:10:14.356Z,21.77
2022-12-13T19:15:17.034Z,17.10
2022-12-13T19:20:19.385Z,21.00
2022-12-13T19:25:21.595Z,16.13
2022-12-13T19:30:23.904Z,14.27
2022-12-13T19:35:26.167Z,14.68
2022-12-13T19:40:29.064Z,13.18
2022-12-13T19:45:31.218Z,15.55
2022-12-13T19:50:33.341Z,16.70
2022-12-13T19:55:35.535Z,23.50
2022-12-13T20:00:37.742Z,19.42
2022-12-13T20:05:45.435Z,21.70
2022-12-13T20:10:47.996Z,19.90
2022-12-13T20:15:50.684Z,17.13
2022-12-13T20:21:13.354Z,15.35
2022-12-13T20:26:18.106Z,13.63
2022-12-13T20:31:24.282Z,16.67
2022-12-13T20:36:29.034Z,15.20
2022-12-13T20:41:34.104Z,13.37
2022-12-13T20:46:36.745Z,13.95
2022-12-13T20:51:41.710Z,13.18
2022-12-13T20:56:43.873Z,12.53
2022-12-13T21:01:48.626Z,11.75
2022-12-13T21:06:51.296Z,13.55
2022-12-13T21:11:53.453Z,13.40
2022-12-13T21:16:57.077Z,10.90
2022-12-13T21:21:59.530Z,12.45
2022-12-13T21:27:01.685Z,10.43
2022-12-13T21:32:03.909Z,10.43
2022-12-13T21:37:06.122Z,12.45
2022-12-13T21:42:09.223Z,11.15
2022-12-13T21:47:12.971Z,11.73
2022-12-13T21:52:15.740Z,12.30
2022-12-13T21:57:47.447Z,10.50
2022-12-13T22:02:49.620Z,11.95
2022-12-13T22:07:51.820Z,10.98
2022-12-13T22:12:53.951Z,11.55
2022-12-13T22:17:56.131Z,10.55
2022-12-13T22:22:58.266Z,10.18
2022-12-13T22:28:00.387Z,10.75
2022-12-13T22:33:02.491Z,9.95
2022-12-13T22:38:04.632Z,10.85
2022-12-13T22:43:07.453Z,9.05
2022-12-13T22:48:09.670Z,11.45
2022-12-13T22:53:11.766Z,9.60
2022-12-13T22:58:14.204Z,10.05
2022-12-13T23:03:16.335Z,9.00
2022-12-13T23:08:18.426Z,9.15
2022-12-13T23:13:20.524Z,8.20
2022-12-13T23:18:22.623Z,9.13
2022-12-13T23:23:24.704Z,8.43
2022-12-13T23:28:27.436Z,7.28
2022-12-13T23:33:29.789Z,8.35
2022-12-13T23:38:32.439Z,7.40
2022-12-13T23:43:35.782Z,7.57
2022-12-13T23:48:38.561Z,6.65
2022-12-13T23:53:41.351Z,5.90
2022-12-13T23:58:45.770Z,6.22
